sensor_id;sensor_type;location;lat;lon;timestamp;pressure;altitude;pressure_sealevel;temperature;humidity
12664;BME280;6396;58.490;15.528;2023-08-06T00:01:59;100506.88;;;14.65;100.00
12664;BME280;6396;58.490;15.528;2023-08-06T00:04:26;100595.25;;;14.90;100.00
12664;BME280;6396;58.490;15.528;2023-08-06T00:06:53;100572.19;;;14.90;100.00
12664;BME280;6396;58.490;15.528;2023-08-06T00:09:19;100543.78;;;14.91;100.00
12664;BME280;6396;58.490;15.528;2023-08-06T00:11:48;100544.66;;;14.91;100.00
12664;BME280;6396;58.490;15.528;2023-08-06T00:14:14;100090.34;;;12.22;100.00
12664;BME280;6396;58.490;15.528;2023-08-06T00:16:43;100495.53;;;14.61;100.00
12664;BME280;6396;58.490;15.528;2023-08-06T00:19:10;100534.34;;;14.84;100.00
12664;BME280;6396;58.490;15.528;2023-08-06T00:21:37;100571.66;;;14.82;100.00
12664;BME280;6396;58.490;15.528;2023-08-06T00:24:04;100563.69;;;14.62;100.00
12664;BME280;6396;58.490;15.528;2023-08-06T00:26:31;100426.13;;;14.08;100.00
12664;BME280;6396;58.490;15.528;2023-08-06T00:28:59;100260.06;;;12.59;100.00
12664;BME280;6396;58.490;15.528;2023-08-06T00:31:26;100482.06;;;14.45;100.00
12664;BME280;6396;58.490;15.528;2023-08-06T00:33:53;100539.38;;;14.71;100.00
12664;BME280;6396;58.490;15.528;2023-08-06T00:36:20;100544.69;;;14.71;100.00
12664;BME280;6396;58.490;15.528;2023-08-06T00:38:46;100543.09;;;14.67;100.00
12664;BME280;6396;58.490;15.528;2023-08-06T00:41:13;100558.19;;;14.67;100.00
12664;BME280;6396;58.490;15.528;2023-08-06T00:43:40;100552.94;;;14.65;100.00
12664;BME280;6396;58.490;15.528;2023-08-06T00:46:08;100549.41;;;14.65;100.00
12664;BME280;6396;58.490;15.528;2023-08-06T00:48:35;100408.66;;;13.83;100.00
12664;BME280;6396;58.490;15.528;2023-08-06T00:51:02;100546.81;;;14.63;100.00
12664;BME280;6396;58.490;15.528;2023-08-06T00:53:29;99748.13;;;9.68;100.00
12664;BME280;6396;58.490;15.528;2023-08-06T00:55:57;100329.06;;;13.21;100.00
12664;BME280;6396;58.490;15.528;2023-08-06T00:58:25;100540.63;;;14.63;100.00
12664;BME280;6396;58.490;15.528;2023-08-06T01:00:52;100267.81;;;12.85;100.00
12664;BME280;6396;58.490;15.528;2023-08-06T01:03:20;100214.44;;;12.51;100.00
12664;BME280;6396;58.490;15.528;2023-08-06T01:05:47;100379.56;;;13.60;100.00
12664;BME280;6396;58.490;15.528;2023-08-06T01:08:21;100072.81;;;11.76;100.00
12664;BME280;6396;58.490;15.528;2023-08-06T01:11:04;100512.69;;;14.34;100.00
12664;BME280;6396;58.490;15.528;2023-08-06T01:13:45;100539.88;;;14.59;100.00
12664;BME280;6396;58.490;15.528;2023-08-06T01:16:15;100332.72;;;13.38;100.00
12664;BME280;6396;58.490;15.528;2023-08-06T01:18:46;100430.38;;;13.92;100.00
12664;BME280;6396;58.490;15.528;2023-08-06T01:21:16;100535.66;;;14.55;100.00
12664;BME280;6396;58.490;15.528;2023-08-06T01:23:44;100471.69;;;13.98;100.00
12664;BME280;6396;58.490;15.528;2023-08-06T01:26:15;100422.97;;;13.79;100.00
12664;BME280;6396;58.490;15.528;2023-08-06T01:28:58;100583.59;;;14.32;100.00
12664;BME280;6396;58.490;15.528;2023-08-06T01:31:27;100441.56;;;13.79;100.00
12664;BME280;6396;58.490;15.528;2023-08-06T01:33:58;100303.97;;;12.86;100.00
12664;BME280;6396;58.490;15.528;2023-08-06T01:36:27;100272.59;;;12.97;100.00
12664;BME280;6396;58.490;15.528;2023-08-06T01:38:54;100559.84;;;14.49;100.00
12664;BME280;6396;58.490;15.528;2023-08-06T01:41:22;100471.94;;;14.13;100.00
12664;BME280;6396;58.490;15.528;2023-08-06T01:43:49;100527.06;;;14.48;100.00
12664;BME280;6396;58.490;15.528;2023-08-06T01:46:16;100555.19;;;14.34;100.00
12664;BME280;6396;58.490;15.528;2023-08-06T01:48:43;100519.09;;;14.48;100.00
12664;BME280;6396;58.490;15.528;2023-08-06T01:51:09;100596.06;;;14.51;100.00
12664;BME280;6396;58.490;15.528;2023-08-06T01:53:38;100385.81;;;13.59;100.00
12664;BME280;6396;58.490;15.528;2023-08-06T01:56:04;100558.13;;;14.48;100.00
12664;BME280;6396;58.490;15.528;2023-08-06T01:58:31;100509.22;;;14.52;100.00
12664;BME280;6396;58.490;15.528;2023-08-06T02:00:58;99825.69;;;10.34;100.00
12664;BME280;6396;58.490;15.528;2023-08-06T02:03:25;100638.50;;;14.53;100.00
12664;BME280;6396;58.490;15.528;2023-08-06T02:05:52;100239.75;;;13.01;100.00
12664;BME280;6396;58.490;15.528;2023-08-06T02:08:18;100169.13;;;12.37;100.00
12664;BME280;6396;58.490;15.528;2023-08-06T02:10:47;100512.72;;;14.52;100.00
12664;BME280;6396;58.490;15.528;2023-08-06T02:13:13;100507.50;;;14.51;100.00
12664;BME280;6396;58.490;15.528;2023-08-06T02:15:43;100529.56;;;14.53;100.00
12664;BME280;6396;58.490;15.528;2023-08-06T02:18:12;100470.44;;;14.28;100.00
12664;BME280;6396;58.490;15.528;2023-08-06T02:20:40;100537.31;;;14.57;100.00
12664;BME280;6396;58.490;15.528;2023-08-06T02:23:06;100525.75;;;14.59;100.00
12664;BME280;6396;58.490;15.528;2023-08-06T02:25:34;100407.06;;;13.79;100.00
12664;BME280;6396;58.490;15.528;2023-08-06T02:28:02;100516.94;;;14.38;100.00
12664;BME280;6396;58.490;15.528;2023-08-06T02:30:29;100501.66;;;14.43;100.00
12664;BME280;6396;58.490;15.528;2023-08-06T02:32:56;100398.25;;;13.78;100.00
12664;BME280;6396;58.490;15.528;2023-08-06T02:35:22;100552.34;;;14.59;100.00
12664;BME280;6396;58.490;15.528;2023-08-06T02:37:49;100556.94;;;14.55;100.00
12664;BME280;6396;58.490;15.528;2023-08-06T02:40:16;100540.97;;;14.55;100.00
12664;BME280;6396;58.490;15.528;2023-08-06T02:42:43;100548.00;;;14.56;100.00
12664;BME280;6396;58.490;15.528;2023-08-06T02:45:11;100417.34;;;13.66;100.00
12664;BME280;6396;58.490;15.528;2023-08-06T02:47:38;100305.13;;;13.01;100.00
12664;BME280;6396;58.490;15.528;2023-08-06T02:50:06;100116.63;;;11.83;100.00
12664;BME280;6396;58.490;15.528;2023-08-06T02:52:32;100210.97;;;12.51;100.00
12664;BME280;6396;58.490;15.528;2023-08-06T02:54:59;100467.88;;;14.05;100.00
12664;BME280;6396;58.490;15.528;2023-08-06T02:57:26;100311.94;;;13.08;100.00
12664;BME280;6396;58.490;15.528;2023-08-06T02:59:53;100348.06;;;13.10;100.00
12664;BME280;6396;58.490;15.528;2023-08-06T03:02:21;100465.06;;;13.68;100.00
12664;BME280;6396;58.490;15.528;2023-08-06T03:04:48;100569.34;;;14.54;100.00
12664;BME280;6396;58.490;15.528;2023-08-06T03:07:15;100575.59;;;14.53;100.00
12664;BME280;6396;58.490;15.528;2023-08-06T03:09:41;100452.75;;;13.87;100.00
12664;BME280;6396;58.490;15.528;2023-08-06T03:12:08;100487.06;;;14.11;100.00
12664;BME280;6396;58.490;15.528;2023-08-06T03:14:35;100441.84;;;13.93;100.00
12664;BME280;6396;58.490;15.528;2023-08-06T03:17:02;100352.88;;;13.22;100.00
12664;BME280;6396;58.490;15.528;2023-08-06T03:19:30;100271.47;;;13.04;100.00
12664;BME280;6396;58.490;15.528;2023-08-06T03:21:57;100318.72;;;13.15;100.00
12664;BME280;6396;58.490;15.528;2023-08-06T03:24:24;100268.28;;;12.95;100.00
12664;BME280;6396;58.490;15.528;2023-08-06T03:26:50;100399.38;;;13.31;100.00
12664;BME280;6396;58.490;15.528;2023-08-06T03:29:17;100543.56;;;14.57;100.00
12664;BME280;6396;58.490;15.528;2023-08-06T03:31:44;100460.44;;;14.13;100.00
12664;BME280;6396;58.490;15.528;2023-08-06T03:34:11;100436.16;;;13.82;100.00
12664;BME280;6396;58.490;15.528;2023-08-06T03:36:39;100189.28;;;12.41;100.00
12664;BME280;6396;58.490;15.528;2023-08-06T03:39:06;100485.38;;;14.30;100.00
12664;BME280;6396;58.490;15.528;2023-08-06T03:41:33;100313.88;;;13.04;100.00
12664;BME280;6396;58.490;15.528;2023-08-06T03:43:59;100400.84;;;13.80;100.00
12664;BME280;6396;58.490;15.528;2023-08-06T03:46:28;100470.69;;;14.22;100.00
12664;BME280;6396;58.490;15.528;2023-08-06T03:48:55;100529.66;;;14.70;100.00
12664;BME280;6396;58.490;15.528;2023-08-06T03:51:22;100032.28;;;11.76;100.00
12664;BME280;6396;58.490;15.528;2023-08-06T03:53:50;99782.00;;;10.48;100.00
12664;BME280;6396;58.490;15.528;2023-08-06T03:56:17;100111.28;;;11.85;100.00
12664;BME280;6396;58.490;15.528;2023-08-06T03:58:44;100539.31;;;14.73;100.00
12664;BME280;6396;58.490;15.528;2023-08-06T04:01:11;100108.03;;;12.00;100.00
12664;BME280;6396;58.490;15.528;2023-08-06T04:03:37;99990.09;;;11.73;100.00
12664;BME280;6396;58.490;15.528;2023-08-06T04:06:04;100145.88;;;12.65;100.00
12664;BME280;6396;58.490;15.528;2023-08-06T04:08:31;100469.16;;;14.57;100.00
12664;BME280;6396;58.490;15.528;2023-08-06T04:10:59;100542.28;;;14.85;100.00
12664;BME280;6396;58.490;15.528;2023-08-06T04:13:26;100186.84;;;12.98;100.00
12664;BME280;6396;58.490;15.528;2023-08-06T04:15:53;100157.50;;;12.83;100.00
12664;BME280;6396;58.490;15.528;2023-08-06T04:18:20;100613.72;;;14.93;100.00
12664;BME280;6396;58.490;15.528;2023-08-06T04:20:47;100448.56;;;14.21;100.00
12664;BME280;6396;58.490;15.528;2023-08-06T04:23:15;100051.84;;;12.15;100.00
12664;BME280;6396;58.490;15.528;2023-08-06T04:25:42;99998.53;;;11.82;100.00
12664;BME280;6396;58.490;15.528;2023-08-06T04:28:10;100600.75;;;15.05;100.00
12664;BME280;6396;58.490;15.528;2023-08-06T04:30:37;100082.97;;;12.50;100.00
12664;BME280;6396;58.490;15.528;2023-08-06T04:33:04;100548.84;;;14.97;100.00
12664;BME280;6396;58.490;15.528;2023-08-06T04:35:31;100457.41;;;14.81;100.00
12664;BME280;6396;58.490;15.528;2023-08-06T04:37:57;99769.78;;;10.89;100.00
12664;BME280;6396;58.490;15.528;2023-08-06T04:40:24;100512.25;;;15.20;100.00
12664;BME280;6396;58.490;15.528;2023-08-06T04:42:51;100507.75;;;15.22;100.00
12664;BME280;6396;58.490;15.528;2023-08-06T04:45:20;99879.81;;;11.33;100.00
12664;BME280;6396;58.490;15.528;2023-08-06T04:47:46;100512.00;;;15.26;100.00
12664;BME280;6396;58.490;15.528;2023-08-06T04:50:13;100180.53;;;13.22;100.00
12664;BME280;6396;58.490;15.528;2023-08-06T04:52:40;100524.22;;;15.30;100.00
12664;BME280;6396;58.490;15.528;2023-08-06T04:55:07;100390.25;;;14.59;100.00
12664;BME280;6396;58.490;15.528;2023-08-06T04:57:34;100511.72;;;15.32;100.00
12664;BME280;6396;58.490;15.528;2023-08-06T05:00:00;100197.06;;;13.48;100.00
12664;BME280;6396;58.490;15.528;2023-08-06T05:02:29;99899.56;;;11.45;100.00
12664;BME280;6396;58.490;15.528;2023-08-06T05:04:57;100544.03;;;15.43;100.00
12664;BME280;6396;58.490;15.528;2023-08-06T05:07:24;100247.78;;;13.80;100.00
12664;BME280;6396;58.490;15.528;2023-08-06T05:09:51;100174.25;;;13.43;100.00
12664;BME280;6396;58.490;15.528;2023-08-06T05:12:17;100160.25;;;13.21;100.00
12664;BME280;6396;58.490;15.528;2023-08-06T05:14:44;100506.59;;;15.46;100.00
12664;BME280;6396;58.490;15.528;2023-08-06T05:17:11;100536.81;;;15.64;100.00
12664;BME280;6396;58.490;15.528;2023-08-06T05:19:39;100433.25;;;15.22;100.00
12664;BME280;6396;58.490;15.528;2023-08-06T05:22:06;100376.16;;;14.94;100.00
12664;BME280;6396;58.490;15.528;2023-08-06T05:24:33;100506.16;;;15.74;100.00
12664;BME280;6396;58.490;15.528;2023-08-06T05:26:59;100421.09;;;15.35;100.00
12664;BME280;6396;58.490;15.528;2023-08-06T05:29:26;100085.88;;;13.24;100.00
12664;BME280;6396;58.490;15.528;2023-08-06T05:31:53;100507.06;;;15.92;100.00
12664;BME280;6396;58.490;15.528;2023-08-06T05:34:20;100066.47;;;13.24;100.00
12664;BME280;6396;58.490;15.528;2023-08-06T05:36:48;100375.31;;;15.29;100.00
12664;BME280;6396;58.490;15.528;2023-08-06T05:39:15;100442.25;;;15.74;100.00
12664;BME280;6396;58.490;15.528;2023-08-06T05:41:42;100391.53;;;15.41;100.00
12664;BME280;6396;58.490;15.528;2023-08-06T05:44:08;100451.34;;;15.87;100.00
12664;BME280;6396;58.490;15.528;2023-08-06T05:46:35;100379.13;;;15.42;100.00
12664;BME280;6396;58.490;15.528;2023-08-06T05:49:02;100499.88;;;16.28;100.00
12664;BME280;6396;58.490;15.528;2023-08-06T05:51:30;99793.78;;;11.86;100.00
12664;BME280;6396;58.490;15.528;2023-08-06T05:54:04;100247.06;;;14.34;100.00
12664;BME280;6396;58.490;15.528;2023-08-06T05:56:33;100021.22;;;13.45;100.00
12664;BME280;6396;58.490;15.528;2023-08-06T05:59:00;100587.81;;;16.45;100.00
12664;BME280;6396;58.490;15.528;2023-08-06T06:01:27;100502.25;;;16.51;100.00
12664;BME280;6396;58.490;15.528;2023-08-06T06:03:54;100475.50;;;16.52;100.00
12664;BME280;6396;58.490;15.528;2023-08-06T06:06:20;100511.78;;;16.55;100.00
12664;BME280;6396;58.490;15.528;2023-08-06T06:08:47;100392.28;;;15.96;100.00
12664;BME280;6396;58.490;15.528;2023-08-06T06:11:15;100338.44;;;15.74;100.00
12664;BME280;6396;58.490;15.528;2023-08-06T06:13:44;100505.69;;;16.53;100.00
12664;BME280;6396;58.490;15.528;2023-08-06T06:16:11;100027.09;;;14.06;100.00
12664;BME280;6396;58.490;15.528;2023-08-06T06:18:38;100254.28;;;15.37;100.00
12664;BME280;6396;58.490;15.528;2023-08-06T06:21:05;99845.38;;;13.26;100.00
12664;BME280;6396;58.490;15.528;2023-08-06T06:23:32;100521.56;;;17.04;100.00
12664;BME280;6396;58.490;15.528;2023-08-06T06:25:59;100440.44;;;16.60;100.00
12664;BME280;6396;58.490;15.528;2023-08-06T06:28:27;100479.94;;;17.17;100.00
12664;BME280;6396;58.490;15.528;2023-08-06T06:31:00;100387.06;;;16.93;100.00
12664;BME280;6396;58.490;15.528;2023-08-06T06:33:26;100441.03;;;17.29;100.00
12664;BME280;6396;58.490;15.528;2023-08-06T06:35:53;100306.88;;;16.49;100.00
12664;BME280;6396;58.490;15.528;2023-08-06T06:38:20;100430.63;;;17.40;100.00
12664;BME280;6396;58.490;15.528;2023-08-06T06:40:54;99975.09;;;14.86;100.00
12664;BME280;6396;58.490;15.528;2023-08-06T06:43:21;100173.22;;;15.93;100.00
12664;BME280;6396;58.490;15.528;2023-08-06T06:45:53;100212.94;;;16.13;100.00
12664;BME280;6396;58.490;15.528;2023-08-06T06:48:22;99999.50;;;15.10;100.00
12664;BME280;6396;58.490;15.528;2023-08-06T06:50:49;100251.69;;;16.51;100.00
12664;BME280;6396;58.490;15.528;2023-08-06T06:53:15;100177.19;;;16.48;100.00
12664;BME280;6396;58.490;15.528;2023-08-06T06:55:42;100198.34;;;16.66;100.00
12664;BME280;6396;58.490;15.528;2023-08-06T06:58:09;100072.50;;;16.15;100.00
12664;BME280;6396;58.490;15.528;2023-08-06T07:00:36;100313.50;;;17.34;100.00
12664;BME280;6396;58.490;15.528;2023-08-06T07:03:04;100472.00;;;17.94;100.00
12664;BME280;6396;58.490;15.528;2023-08-06T07:05:32;100218.47;;;16.41;100.00
12664;BME280;6396;58.490;15.528;2023-08-06T07:07:59;100482.59;;;17.95;100.00
12664;BME280;6396;58.490;15.528;2023-08-06T07:10:26;100151.75;;;16.42;100.00
12664;BME280;6396;58.490;15.528;2023-08-06T07:12:53;100359.66;;;17.51;100.00
12664;BME280;6396;58.490;15.528;2023-08-06T07:15:20;100395.69;;;17.74;100.00
12664;BME280;6396;58.490;15.528;2023-08-06T07:17:47;100405.88;;;17.67;100.00
12664;BME280;6396;58.490;15.528;2023-08-06T07:20:15;100284.34;;;16.86;100.00
12664;BME280;6396;58.490;15.528;2023-08-06T07:22:42;100041.97;;;15.44;100.00
12664;BME280;6396;58.490;15.528;2023-08-06T07:25:09;100177.34;;;16.14;100.00
12664;BME280;6396;58.490;15.528;2023-08-06T07:27:36;99968.34;;;14.96;100.00
12664;BME280;6396;58.490;15.528;2023-08-06T07:30:03;100245.84;;;16.43;100.00
12664;BME280;6396;58.490;15.528;2023-08-06T07:32:31;100379.31;;;17.50;100.00
12664;BME280;6396;58.490;15.528;2023-08-06T07:34:58;100362.41;;;17.34;100.00
12664;BME280;6396;58.490;15.528;2023-08-06T07:37:27;100148.94;;;16.14;100.00
12664;BME280;6396;58.490;15.528;2023-08-06T07:39:55;100134.84;;;15.97;100.00
12664;BME280;6396;58.490;15.528;2023-08-06T07:42:22;100417.16;;;17.72;100.00
12664;BME280;6396;58.490;15.528;2023-08-06T07:44:51;100349.16;;;17.48;100.00
12664;BME280;6396;58.490;15.528;2023-08-06T07:47:18;99953.69;;;15.20;100.00
12664;BME280;6396;58.490;15.528;2023-08-06T07:49:45;100375.03;;;17.62;100.00
12664;BME280;6396;58.490;15.528;2023-08-06T07:52:12;100400.09;;;17.75;100.00
12664;BME280;6396;58.490;15.528;2023-08-06T07:54:40;100338.22;;;17.37;100.00
12664;BME280;6396;58.490;15.528;2023-08-06T07:57:07;100392.53;;;17.67;100.00
12664;BME280;6396;58.490;15.528;2023-08-06T07:59:34;100148.66;;;16.19;100.00
12664;BME280;6396;58.490;15.528;2023-08-06T08:02:01;100456.03;;;17.62;100.00
12664;BME280;6396;58.490;15.528;2023-08-06T08:04:27;100163.84;;;16.32;100.00
12664;BME280;6396;58.490;15.528;2023-08-06T08:06:54;100184.75;;;16.09;100.00
12664;BME280;6396;58.490;15.528;2023-08-06T08:09:21;100194.44;;;16.25;100.00
12664;BME280;6396;58.490;15.528;2023-08-06T08:11:49;100173.91;;;16.27;100.00
12664;BME280;6396;58.490;15.528;2023-08-06T08:14:17;100424.31;;;17.56;100.00
12664;BME280;6396;58.490;15.528;2023-08-06T08:16:44;100298.78;;;16.82;100.00
12664;BME280;6396;58.490;15.528;2023-08-06T08:19:11;100302.66;;;16.92;100.00
12664;BME280;6396;58.490;15.528;2023-08-06T08:21:38;100437.69;;;17.56;100.00
12664;BME280;6396;58.490;15.528;2023-08-06T08:24:05;100400.13;;;17.59;100.00
12664;BME280;6396;58.490;15.528;2023-08-06T08:26:32;100325.75;;;17.22;100.00
12664;BME280;6396;58.490;15.528;2023-08-06T08:29:00;100393.41;;;17.68;100.00
12664;BME280;6396;58.490;15.528;2023-08-06T08:31:27;100287.56;;;17.06;100.00
12664;BME280;6396;58.490;15.528;2023-08-06T08:33:55;100395.88;;;17.71;100.00
12664;BME280;6396;58.490;15.528;2023-08-06T08:36:21;100391.13;;;17.76;100.00
12664;BME280;6396;58.490;15.528;2023-08-06T08:38:48;100037.84;;;15.70;100.00
12664;BME280;6396;58.490;15.528;2023-08-06T08:41:19;100400.41;;;17.84;100.00
12664;BME280;6396;58.490;15.528;2023-08-06T08:43:48;99905.81;;;15.05;100.00
12664;BME280;6396;58.490;15.528;2023-08-06T08:46:19;100214.50;;;16.79;100.00
12664;BME280;6396;58.490;15.528;2023-08-06T08:48:46;100192.63;;;16.72;100.00
12664;BME280;6396;58.490;15.528;2023-08-06T08:51:13;100285.56;;;17.55;100.00
12664;BME280;6396;58.490;15.528;2023-08-06T08:53:42;100344.81;;;17.91;100.00
12664;BME280;6396;58.490;15.528;2023-08-06T08:56:12;100140.13;;;16.89;100.00
12664;BME280;6396;58.490;15.528;2023-08-06T08:58:39;100342.22;;;18.04;100.00
12664;BME280;6396;58.490;15.528;2023-08-06T09:01:07;100150.97;;;17.15;100.00
12664;BME280;6396;58.490;15.528;2023-08-06T09:03:36;100013.78;;;16.32;100.00
12664;BME280;6396;58.490;15.528;2023-08-06T09:06:03;100314.09;;;18.12;100.00
12664;BME280;6396;58.490;15.528;2023-08-06T09:08:36;100349.22;;;18.34;100.00
12664;BME280;6396;58.490;15.528;2023-08-06T09:11:04;100370.53;;;18.36;100.00
12664;BME280;6396;58.490;15.528;2023-08-06T09:13:31;100042.56;;;16.41;100.00
12664;BME280;6396;58.490;15.528;2023-08-06T09:15:58;100286.88;;;17.92;100.00
12664;BME280;6396;58.490;15.528;2023-08-06T09:18:25;99806.06;;;14.98;100.00
12664;BME280;6396;58.490;15.528;2023-08-06T09:20:55;100344.84;;;18.33;100.00
12664;BME280;6396;58.490;15.528;2023-08-06T09:23:27;99885.56;;;15.49;100.00
12664;BME280;6396;58.490;15.528;2023-08-06T09:25:57;99729.44;;;14.90;100.00
12664;BME280;6396;58.490;15.528;2023-08-06T09:28:39;100088.59;;;17.02;100.00
12664;BME280;6396;58.490;15.528;2023-08-06T09:31:08;99873.19;;;15.63;100.00
12664;BME280;6396;58.490;15.528;2023-08-06T09:33:37;99812.16;;;15.00;100.00
12664;BME280;6396;58.490;15.528;2023-08-06T09:36:11;99871.94;;;15.55;100.00
12664;BME280;6396;58.490;15.528;2023-08-06T09:38:38;100290.31;;;18.22;100.00
12664;BME280;6396;58.490;15.528;2023-08-06T09:41:06;100350.75;;;18.24;100.00
12664;BME280;6396;58.490;15.528;2023-08-06T09:43:40;99860.38;;;15.70;100.00
12664;BME280;6396;58.490;15.528;2023-08-06T09:46:12;100270.66;;;18.37;100.00
12664;BME280;6396;58.490;15.528;2023-08-06T09:48:45;99840.56;;;15.90;100.00
12664;BME280;6396;58.490;15.528;2023-08-06T09:51:15;99874.41;;;15.88;100.00
12664;BME280;6396;58.490;15.528;2023-08-06T09:53:43;99989.94;;;16.88;100.00
12664;BME280;6396;58.490;15.528;2023-08-06T09:56:22;99944.91;;;16.40;100.00
12664;BME280;6396;58.490;15.528;2023-08-06T09:58:54;99950.41;;;16.66;100.00
12664;BME280;6396;58.490;15.528;2023-08-06T10:01:27;100330.25;;;18.53;100.00
12664;BME280;6396;58.490;15.528;2023-08-06T10:04:01;100223.41;;;18.09;100.00
12664;BME280;6396;58.490;15.528;2023-08-06T10:06:39;100117.47;;;17.53;100.00
12664;BME280;6396;58.490;15.528;2023-08-06T10:09:31;100273.34;;;18.37;100.00
12664;BME280;6396;58.490;15.528;2023-08-06T10:12:00;100338.09;;;18.42;100.00
12664;BME280;6396;58.490;15.528;2023-08-06T10:14:32;100297.41;;;18.37;100.00
12664;BME280;6396;58.490;15.528;2023-08-06T10:17:05;99879.44;;;15.92;100.00
12664;BME280;6396;58.490;15.528;2023-08-06T10:19:33;100017.34;;;17.04;100.00
12664;BME280;6396;58.490;15.528;2023-08-06T10:22:12;100233.16;;;18.24;100.00
12664;BME280;6396;58.490;15.528;2023-08-06T10:24:51;100324.19;;;18.21;100.00
12664;BME280;6396;58.490;15.528;2023-08-06T10:27:27;99840.63;;;15.44;100.00
12664;BME280;6396;58.490;15.528;2023-08-06T10:29:54;99815.31;;;15.67;100.00
12664;BME280;6396;58.490;15.528;2023-08-06T10:32:21;100188.88;;;17.78;100.00
12664;BME280;6396;58.490;15.528;2023-08-06T10:34:55;99951.09;;;16.40;100.00
12664;BME280;6396;58.490;15.528;2023-08-06T10:37:34;100216.06;;;17.99;100.00
12664;BME280;6396;58.490;15.528;2023-08-06T10:40:08;100013.34;;;16.83;100.00
12664;BME280;6396;58.490;15.528;2023-08-06T10:42:35;100015.81;;;16.72;100.00
12664;BME280;6396;58.490;15.528;2023-08-06T10:45:12;100204.03;;;17.49;100.00
12664;BME280;6396;58.490;15.528;2023-08-06T10:47:42;99984.31;;;16.79;100.00
12664;BME280;6396;58.490;15.528;2023-08-06T10:50:11;99459.34;;;13.71;100.00
12664;BME280;6396;58.490;15.528;2023-08-06T10:52:40;99833.75;;;15.70;100.00
12664;BME280;6396;58.490;15.528;2023-08-06T10:55:07;100006.47;;;16.65;100.00
12664;BME280;6396;58.490;15.528;2023-08-06T10:57:39;100053.19;;;17.14;100.00
12664;BME280;6396;58.490;15.528;2023-08-06T11:00:08;100195.88;;;17.95;100.00
12664;BME280;6396;58.490;15.528;2023-08-06T11:02:38;100131.09;;;17.63;100.00
12664;BME280;6396;58.490;15.528;2023-08-06T11:05:09;99925.06;;;16.16;100.00
12664;BME280;6396;58.490;15.528;2023-08-06T11:07:36;99902.56;;;16.35;100.00
12664;BME280;6396;58.490;15.528;2023-08-06T11:10:07;100245.16;;;18.31;100.00
12664;BME280;6396;58.490;15.528;2023-08-06T11:12:34;100258.63;;;18.30;100.00
12664;BME280;6396;58.490;15.528;2023-08-06T11:15:02;100224.75;;;17.88;100.00
12664;BME280;6396;58.490;15.528;2023-08-06T11:17:32;100171.34;;;17.74;100.00
12664;BME280;6396;58.490;15.528;2023-08-06T11:20:00;100083.59;;;17.40;100.00
12664;BME280;6396;58.490;15.528;2023-08-06T11:22:27;100055.06;;;16.84;100.00
12664;BME280;6396;58.490;15.528;2023-08-06T11:24:54;100237.81;;;18.35;100.00
12664;BME280;6396;58.490;15.528;2023-08-06T11:27:26;100222.59;;;18.35;100.00
12664;BME280;6396;58.490;15.528;2023-08-06T11:29:53;99790.53;;;15.81;100.00
12664;BME280;6396;58.490;15.528;2023-08-06T11:32:22;99999.06;;;16.98;100.00
12664;BME280;6396;58.490;15.528;2023-08-06T11:34:49;100214.59;;;18.35;100.00
12664;BME280;6396;58.490;15.528;2023-08-06T11:37:20;99796.13;;;15.76;100.00
12664;BME280;6396;58.490;15.528;2023-08-06T11:39:49;100210.31;;;18.33;100.00
12664;BME280;6396;58.490;15.528;2023-08-06T11:42:17;100271.91;;;18.31;100.00
12664;BME280;6396;58.490;15.528;2023-08-06T11:44:45;99813.63;;;15.80;100.00
12664;BME280;6396;58.490;15.528;2023-08-06T11:47:14;100012.69;;;16.94;100.00
12664;BME280;6396;58.490;15.528;2023-08-06T11:49:43;100247.00;;;18.17;100.00
12664;BME280;6396;58.490;15.528;2023-08-06T11:52:16;100051.94;;;17.06;100.00
12664;BME280;6396;58.490;15.528;2023-08-06T11:54:45;100012.00;;;16.90;100.00
12664;BME280;6396;58.490;15.528;2023-08-06T11:57:12;100256.91;;;18.15;100.00
12664;BME280;6396;58.490;15.528;2023-08-06T11:59:39;99703.41;;;15.11;100.00
12664;BME280;6396;58.490;15.528;2023-08-06T12:02:09;99950.81;;;16.45;100.00
12664;BME280;6396;58.490;15.528;2023-08-06T12:05:02;99815.44;;;15.80;100.00
12664;BME280;6396;58.490;15.528;2023-08-06T12:07:30;99936.22;;;16.36;100.00
12664;BME280;6396;58.490;15.528;2023-08-06T12:09:58;99885.09;;;16.02;100.00
12664;BME280;6396;58.490;15.528;2023-08-06T12:12:25;99512.50;;;13.69;100.00
12664;BME280;6396;58.490;15.528;2023-08-06T12:14:52;99531.03;;;14.00;100.00
12664;BME280;6396;58.490;15.528;2023-08-06T12:17:20;100194.22;;;17.92;100.00
12664;BME280;6396;58.490;15.528;2023-08-06T12:19:47;100248.72;;;17.90;100.00
12664;BME280;6396;58.490;15.528;2023-08-06T12:22:14;99797.34;;;15.11;100.00
12664;BME280;6396;58.490;15.528;2023-08-06T12:24:41;100190.31;;;17.83;100.00
12664;BME280;6396;58.490;15.528;2023-08-06T12:27:08;99496.47;;;13.71;100.00
12664;BME280;6396;58.490;15.528;2023-08-06T12:29:36;100221.16;;;17.75;100.00
12664;BME280;6396;58.490;15.528;2023-08-06T12:32:04;100059.09;;;16.91;100.00
12664;BME280;6396;58.490;15.528;2023-08-06T12:34:32;100170.09;;;17.79;100.00
12664;BME280;6396;58.490;15.528;2023-08-06T12:36:59;100166.38;;;17.68;100.00
12664;BME280;6396;58.490;15.528;2023-08-06T12:39:27;99715.38;;;15.18;100.00
12664;BME280;6396;58.490;15.528;2023-08-06T12:41:54;99811.81;;;15.81;100.00
12664;BME280;6396;58.490;15.528;2023-08-06T12:44:24;99432.84;;;13.55;100.00
12664;BME280;6396;58.490;15.528;2023-08-06T12:46:51;99447.09;;;13.68;100.00
12664;BME280;6396;58.490;15.528;2023-08-06T12:49:24;99578.34;;;14.39;100.00